Nebraska, Indiana
Current Conditions -  °F | °C
As of 1:15 PM on Tuesday 21 Oct 2014 (Local Time) from KI67 Reporting Station
Broken Clouds Broken Clouds  
Wind Chill: 54°   Ceiling: 5500
Heat Index: 54°   Visibility: 10mi
Dew Point: 37°   Wind: 12mph
Humidity: 54%   Direction: 340°NNW
Pressure: 30.05"   Gusts: 17mph
Location:  39.06°N, 85.46°W
Report Text: KI67 211715Z AUTO 34010G15KT 10SM SCT040 SCT048 BKN055 12/03 A3005 RMK AO1
Loading
Personal Weather Stations






























Interactive Weather Map
Tropical Storm Tracking
New forecast layout! Learn more

10-Day Weather Forecast

Advertisements
Track Severe Weather on mobile